createdAt,value
2023-03-13T00:01:00.430Z,8.20
2023-03-13T00:06:03.689Z,8.30
2023-03-13T00:11:09.613Z,8.30
2023-03-13T00:16:15.020Z,8.30
2023-03-13T00:21:19.235Z,8.30
2023-03-13T00:26:25.206Z,8.40
2023-03-13T00:31:29.985Z,8.40
2023-03-13T00:36:35.386Z,8.30
2023-03-13T00:41:40.034Z,8.30
2023-03-13T00:46:43.395Z,8.40
2023-03-13T00:51:46.704Z,8.40
2023-03-13T00:56:51.406Z,8.50
2023-03-13T01:01:54.988Z,8.60
2023-03-13T01:06:58.369Z,8.70
2023-03-13T01:12:03.106Z,8.80
2023-03-13T01:17:07.698Z,8.90
2023-03-13T01:22:12.677Z,8.90
2023-03-13T01:27:17.372Z,9.00
2023-03-13T01:32:40.363Z,9.00
2023-03-13T01:37:51.775Z,9.00
2023-03-13T01:42:58.859Z,9.00
2023-03-13T01:48:02.261Z,8.90
2023-03-13T01:53:21.471Z,9.00
2023-03-13T01:58:27.941Z,9.00
2023-03-13T02:03:32.535Z,9.00
2023-03-13T02:08:39.549Z,9.00
2023-03-13T02:13:44.632Z,9.10
2023-03-13T02:18:48.806Z,9.10
2023-03-13T02:23:57.698Z,9.10
2023-03-13T02:29:02.471Z,9.10
2023-03-13T02:34:06.343Z,9.10
2023-03-13T02:39:10.611Z,9.10
2023-03-13T02:44:15.250Z,9.10
2023-03-13T02:49:23.067Z,9.10
2023-03-13T02:54:32.872Z,9.10
2023-03-13T02:59:38.096Z,9.10
2023-03-13T03:04:41.584Z,9.10
2023-03-13T03:09:47.298Z,9.10
2023-03-13T03:14:56.454Z,9.10
2023-03-13T03:20:00.822Z,9.10
2023-03-13T03:25:04.795Z,9.10
2023-03-13T03:30:11.348Z,9.10
2023-03-13T03:35:15.662Z,9.10
2023-03-13T03:40:21.361Z,9.10
2023-03-13T03:45:26.264Z,9.20
2023-03-13T03:50:29.642Z,9.20
2023-03-13T03:55:37.181Z,9.30
2023-03-13T04:00:44.913Z,9.30
2023-03-13T04:05:48.326Z,9.40
2023-03-13T04:10:52.399Z,9.40
2023-03-13T04:16:00.299Z,9.40
2023-03-13T04:21:04.001Z,9.50
2023-03-13T04:26:13.830Z,9.40
2023-03-13T04:31:19.578Z,9.40
2023-03-13T04:36:41.766Z,9.40
2023-03-13T04:42:07.054Z,9.40
2023-03-13T04:47:23.037Z,9.40
2023-03-13T04:52:43.921Z,9.30
2023-03-13T04:58:00.550Z,9.30
2023-03-13T05:03:22.600Z,9.30
2023-03-13T05:08:44.869Z,9.30
2023-03-13T05:13:53.973Z,9.30
2023-03-13T05:19:13.972Z,9.30
2023-03-13T05:24:35.829Z,9.40
2023-03-13T05:29:51.377Z,9.40
2023-03-13T05:35:17.742Z,9.50
2023-03-13T05:40:44.112Z,9.60
2023-03-13T05:46:08.879Z,9.60
2023-03-13T05:51:32.206Z,9.70
2023-03-13T05:57:00.536Z,9.70
2023-03-13T06:02:22.618Z,9.80
2023-03-13T06:07:28.214Z,9.90
2023-03-13T06:12:31.889Z,9.90
2023-03-13T06:17:35.888Z,9.90
2023-03-13T06:22:40.644Z,9.90
2023-03-13T06:27:43.952Z,9.90
2023-03-13T06:32:47.395Z,9.90
2023-03-13T06:37:52.166Z,9.90
2023-03-13T06:42:56.777Z,10.00
2023-03-13T06:48:00.040Z,10.10
2023-03-13T06:53:35.896Z,10.10
2023-03-13T06:58:38.091Z,10.30
2023-03-13T07:03:42.466Z,10.40
2023-03-13T07:08:47.391Z,10.50
2023-03-13T07:13:50.613Z,10.60
2023-03-13T07:18:53.812Z,10.60
2023-03-13T07:23:58.464Z,10.70
2023-03-13T07:29:01.678Z,10.80
2023-03-13T07:34:04.918Z,10.90
2023-03-13T07:39:09.787Z,11.10
2023-03-13T07:44:12.951Z,11.40
2023-03-13T07:49:16.190Z,11.60
2023-03-13T07:54:20.800Z,11.80
2023-03-13T07:59:24.160Z,11.80
2023-03-13T08:04:27.535Z,12.00
2023-03-13T08:09:35.427Z,12.10
2023-03-13T08:14:38.695Z,12.20
2023-03-13T08:19:42.146Z,12.20
2023-03-13T08:24:46.761Z,12.10
2023-03-13T08:29:49.986Z,12.00
2023-03-13T08:34:53.189Z,11.90
2023-03-13T08:39:57.942Z,11.90
2023-03-13T08:45:01.159Z,11.90
2023-03-13T08:50:04.943Z,11.90
2023-03-13T08:55:10.980Z,11.90
2023-03-13T09:00:15.580Z,11.90
2023-03-13T09:05:18.935Z,12.00
2023-03-13T09:10:24.058Z,12.10
2023-03-13T09:15:27.682Z,12.20
2023-03-13T09:20:31.120Z,12.30
2023-03-13T09:25:35.835Z,12.30
2023-03-13T09:30:39.180Z,12.40
2023-03-13T09:35:42.485Z,12.50
2023-03-13T09:41:04.889Z,12.70
2023-03-13T09:46:16.892Z,12.80
2023-03-13T09:51:24.748Z,13.00
2023-03-13T09:56:33.674Z,13.20
2023-03-13T10:01:39.017Z,13.30
2023-03-13T10:06:46.331Z,13.30
2023-03-13T10:11:58.956Z,13.30
2023-03-13T10:17:08.448Z,13.30
2023-03-13T10:22:16.272Z,13.40
2023-03-13T10:27:20.984Z,13.40
2023-03-13T10:32:24.288Z,13.40
2023-03-13T10:37:29.247Z,13.50
2023-03-13T10:42:37.150Z,13.80
2023-03-13T10:47:40.459Z,13.60
2023-03-13T10:52:45.501Z,13.60
2023-03-13T10:57:59.990Z,13.70
2023-03-13T11:03:06.595Z,14.00
2023-03-13T11:08:21.402Z,14.30
2023-03-13T11:13:41.987Z,14.60
2023-03-13T11:19:02.479Z,15.00
2023-03-13T11:24:14.648Z,15.50
2023-03-13T11:29:27.289Z,15.70
2023-03-13T11:34:39.540Z,16.00
2023-03-13T11:39:54.798Z,16.10
2023-03-13T11:45:05.364Z,16.20
2023-03-13T11:50:32.366Z,16.20
2023-03-13T11:55:44.399Z,16.20
2023-03-13T12:00:54.083Z,16.70
2023-03-13T12:06:00.258Z,17.40
2023-03-13T12:11:14.650Z,18.20
2023-03-13T12:16:24.994Z,18.90
2023-03-13T12:21:33.228Z,19.30
2023-03-13T12:26:42.987Z,18.80
2023-03-13T12:31:54.571Z,18.90
2023-03-13T12:37:06.837Z,18.60
2023-03-13T12:42:20.655Z,18.20
2023-03-13T12:51:28.487Z,18.20
2023-03-13T12:56:56.143Z,18.10
2023-03-13T13:02:01.249Z,17.80
2023-03-13T13:07:08.015Z,17.60
2023-03-13T13:12:21.528Z,17.40
2023-03-13T13:17:52.311Z,17.30
2023-03-13T13:22:57.166Z,17.10
2023-03-13T13:28:27.482Z,17.00
2023-03-13T13:33:39.167Z,17.10
2023-03-13T13:38:43.976Z,17.30
2023-03-13T13:43:49.211Z,17.30
2023-03-13T13:49:07.639Z,17.10
2023-03-13T13:54:34.644Z,17.00
2023-03-13T13:59:43.155Z,17.00
2023-03-13T14:04:50.789Z,16.90
2023-03-13T14:10:05.360Z,17.00
2023-03-13T14:15:17.052Z,17.20
2023-03-13T14:20:26.837Z,17.50
2023-03-13T14:25:44.396Z,17.80
2023-03-13T14:30:49.118Z,17.90
2023-03-13T14:35:52.606Z,17.80
2023-03-13T14:40:58.133Z,17.50
2023-03-13T14:46:02.754Z,17.40
2023-03-13T14:51:15.731Z,17.10
2023-03-13T14:56:21.150Z,16.90
2023-03-13T15:01:27.070Z,16.90
2023-03-13T15:06:30.639Z,17.00
2023-03-13T15:11:35.296Z,17.40
2023-03-13T15:16:38.894Z,17.90
2023-03-13T15:21:42.195Z,17.90
2023-03-13T15:26:48.992Z,17.80
2023-03-13T15:31:53.037Z,17.50
2023-03-13T15:36:56.424Z,17.20
2023-03-13T15:42:01.094Z,16.90
2023-03-13T15:47:04.399Z,16.70
2023-03-13T15:52:17.577Z,16.60
2023-03-13T15:57:25.271Z,16.50
2023-03-13T16:02:28.641Z,16.50
2023-03-13T16:07:32.022Z,16.60
2023-03-13T16:12:36.647Z,17.00
2023-03-13T16:17:40.088Z,17.20
2023-03-13T16:22:43.979Z,17.40
2023-03-13T16:27:48.674Z,17.20
2023-03-13T16:32:52.095Z,17.00
2023-03-13T16:37:55.783Z,16.80
2023-03-13T16:43:00.917Z,16.60
2023-03-13T16:48:04.122Z,16.30
2023-03-13T16:53:07.294Z,16.20
2023-03-13T16:58:13.754Z,16.10
2023-03-13T17:03:16.961Z,16.00
2023-03-13T17:08:20.277Z,15.90
2023-03-13T17:13:25.130Z,15.80
2023-03-13T17:18:28.429Z,15.80
2023-03-13T17:23:31.625Z,15.70
2023-03-13T17:28:36.323Z,15.70
2023-03-13T17:33:40.857Z,15.70
2023-03-13T17:38:44.337Z,15.60
2023-03-13T17:43:49.332Z,15.50
2023-03-13T17:48:54.377Z,15.50
2023-03-13T17:53:59.106Z,15.50
2023-03-13T17:59:04.371Z,15.40
2023-03-13T18:04:08.196Z,15.30
2023-03-13T18:09:15.721Z,15.20
2023-03-13T18:14:21.851Z,15.20
2023-03-13T18:19:26.815Z,15.20
2023-03-13T18:24:30.177Z,15.20
2023-03-13T18:29:34.796Z,15.20
2023-03-13T18:34:38.123Z,15.10
2023-03-13T18:39:41.396Z,15.10
2023-03-13T18:44:46.069Z,15.00
2023-03-13T18:49:50.946Z,14.90
2023-03-13T18:54:54.238Z,14.80
2023-03-13T18:59:58.891Z,14.70
2023-03-13T19:05:02.162Z,14.60
2023-03-13T19:10:10.850Z,14.40
2023-03-13T19:15:15.894Z,14.30
2023-03-13T19:20:22.187Z,14.30
2023-03-13T19:25:25.512Z,14.20
2023-03-13T19:30:30.274Z,14.10
2023-03-13T19:35:33.507Z,14.00
2023-03-13T19:40:36.740Z,13.90
2023-03-13T19:45:41.378Z,13.70
2023-03-13T19:50:45.256Z,13.60
2023-03-13T19:55:48.474Z,13.50
2023-03-13T20:00:53.182Z,13.40
2023-03-13T20:05:56.523Z,13.40
2023-03-13T20:10:59.760Z,13.40
2023-03-13T20:16:04.921Z,13.30
2023-03-13T20:21:08.329Z,13.30
2023-03-13T20:26:13.586Z,13.30
2023-03-13T20:31:19.446Z,13.30
2023-03-13T20:36:22.821Z,13.30
2023-03-13T20:41:31.152Z,13.40
2023-03-13T20:46:35.784Z,13.40
2023-03-13T20:51:39.092Z,13.40
2023-03-13T20:56:42.380Z,13.50
2023-03-13T21:01:47.002Z,13.50
2023-03-13T21:06:50.669Z,13.50
2023-03-13T21:11:53.908Z,13.50
2023-03-13T21:16:58.896Z,13.50
2023-03-13T21:22:02.258Z,13.40
2023-03-13T21:27:05.731Z,13.30
2023-03-13T21:32:10.573Z,13.20
2023-03-13T21:37:14.876Z,13.00
2023-03-13T21:42:18.306Z,12.90
2023-03-13T21:47:24.498Z,12.80
2023-03-13T21:52:28.098Z,12.70
2023-03-13T21:57:31.714Z,12.60
2023-03-13T22:02:36.683Z,12.40
2023-03-13T22:07:40.007Z,12.20
2023-03-13T22:12:43.358Z,12.10
2023-03-13T22:17:48.004Z,12.00
2023-03-13T22:22:52.190Z,11.80
2023-03-13T22:27:55.506Z,11.70
2023-03-13T22:33:00.679Z,11.40
2023-03-13T22:38:04.338Z,11.40
2023-03-13T22:43:07.587Z,11.40
2023-03-13T22:48:12.142Z,11.40
2023-03-13T22:53:15.657Z,11.40
2023-03-13T22:58:18.866Z,11.30
2023-03-13T23:03:24.110Z,11.30
2023-03-13T23:08:27.352Z,11.30
2023-03-13T23:13:30.930Z,11.30
2023-03-13T23:18:35.981Z,11.30
2023-03-13T23:23:39.384Z,11.30
2023-03-13T23:28:43.194Z,11.40
2023-03-13T23:33:48.632Z,11.40
2023-03-13T23:38:54.020Z,11.30
2023-03-13T23:43:57.279Z,11.40
2023-03-13T23:49:02.014Z,11.30
2023-03-13T23:54:05.496Z,11.30
2023-03-13T23:59:08.801Z,11.30
